Un Trieste — TCOD3 — position and weather

sailwx.info

Track history (hours):
 
Tides and Currents Weather Stations Pressure Air Temp Water Temp Dewpoint Dewpoint Depression Visibility Wind Speed Wind Dir Waves Ship Positions

Un Trieste

Last reported at 2018-Aug-19 14:05 UTC. Time now 2018-Aug-20 16:19 UTC.
Position N 37°05' E 023°56'.

Length 193 m; draft 6.5 m.

Type: Ship (hazmat cat A). MMSI: 271000793.

Date/timePositionNaut miles runAvg speedWind from/ knotsBaromVisibWave heightAir tempDewpointWater temp
2018-Aug-19 14:05N 37°05' E 023°56'57517.9
2018-Aug-18 05:57N 43°34' E 014°40'2620.0
2018-Aug-18 04:39N 43°54' E 014°18'320.2
2018-Aug-18 04:31N 43°56' E 014°15'1020.1
2018-Aug-18 04:00N 44°04' E 014°06'1020.0
2018-Aug-18 03:30N 44°12' E 013°58'1020.0
2018-Aug-18 03:01N 44°20' E 013°51'1020.2
2018-Aug-18 02:30N 44°29' E 013°42'1020.4
2018-Aug-18 02:00N 44°37' E 013°35'1020.1
2018-Aug-18 01:30N 44°46' E 013°27'1020.1
2018-Aug-18 01:00N 44°54' E 013°19'1020.1
2018-Aug-18 00:30N 45°03' E 013°12'1019.8
2018-Aug-18 00:01N 45°11' E 013°05'1019.8
2018-Aug-17 23:30N 45°21' E 013°03'1019.7
2018-Aug-17 23:01N 45°28' E 013°13'1019.6
2018-Aug-17 22:30N 45°34' E 013°24'1019.5
2018-Aug-17 22:00N 45°38' E 013°36'611.4
2018-Aug-17 21:28N 45°39' E 013°45'0 0.0
2018-Aug-17 20:58N 45°39' E 013°45'0 0.0
2018-Aug-17 20:28N 45°39' E 013°45'0 0.0
2018-Aug-17 19:57N 45°39' E 013°45'0 0.0
2018-Aug-17 19:30N 45°39' E 013°45'0 0.0
2018-Aug-17 18:48N 45°39' E 013°45'0 0.0
2018-Aug-17 18:30N 45°39' E 013°45'0 0.0
2018-Aug-17 18:00N 45°39' E 013°45'0 0.0
2018-Aug-17 17:11N 45°39' E 013°45'0 0.0
2018-Aug-17 16:59N 45°39' E 013°45'0 0.0
2018-Aug-17 16:29N 45°39' E 013°45'0 0.0
2018-Aug-17 15:59N 45°39' E 013°45'0 0.0
2018-Aug-17 15:28N 45°39' E 013°45'0 0.0
2018-Aug-17 14:49N 45°39' E 013°45'0 0.3
2018-Aug-17 14:00N 45°39' E 013°45'510.8
2018-Aug-17 13:30N 45°37' E 013°37'917.4
2018-Aug-17 13:00N 45°32' E 013°27'1018.9
2018-Aug-17 12:30N 45°26' E 013°18'917.3
2018-Aug-17 12:00N 45°17' E 013°14'1019.2
2018-Aug-17 11:30N 45°08' E 013°18'1019.3
2018-Aug-17 11:00N 44°59' E 013°23'1019.2
2018-Aug-17 10:30N 44°51' E 013°30'1019.3
2018-Aug-17 10:01N 44°42' E 013°37'1119.2
2018-Aug-17 09:27N 44°34' E 013°45'1119.5
2018-Aug-17 08:53N 44°24' E 013°53'1119.9
2018-Aug-17 08:19N 44°15' E 014°02'1019.9
2018-Aug-17 07:47N 44°06' E 014°10'  
2018-Aug-12 20:10N 38°29' E 024°60'518.6
2018-Aug-12 19:54N 38°24' E 024°57'56014.5
2018-Aug-11 05:17N 43°34' E 014°39'1219.4
2018-Aug-11 04:41N 43°43' E 014°29'419.4
2018-Aug-11 04:30N 43°46' E 014°26'919.3
2018-Aug-11 04:01N 43°54' E 014°17'1019.5
2018-Aug-11 03:30N 44°01' E 014°09'1119.5
2018-Aug-11 02:58N 44°10' E 013°60'919.6
2018-Aug-11 02:30N 44°17' E 013°53'1019.6
2018-Aug-11 02:01N 44°25' E 013°46'1019.8
2018-Aug-11 01:30N 44°34' E 013°39'1019.9
2018-Aug-11 01:00N 44°42' E 013°31'1020.0
2018-Aug-11 00:31N 44°51' E 013°23'1019.7
2018-Aug-11 00:00N 44°59' E 013°16'1019.6
2018-Aug-10 23:30N 45°07' E 013°08'1019.6
2018-Aug-10 23:01N 45°16' E 013°04'918.0
2018-Aug-10 22:30N 45°25' E 013°09'1019.4
2018-Aug-10 22:00N 45°32' E 013°18'919.0
2018-Aug-10 21:30N 45°37' E 013°30'918.3
2018-Aug-10 21:00N 45°39' E 013°43'2 2.8
2018-Aug-10 20:26N 45°39' E 013°45'0 0.0
2018-Aug-10 19:58N 45°39' E 013°45'0 0.0
2018-Aug-10 19:28N 45°39' E 013°45'0 0.0
2018-Aug-10 18:58N 45°39' E 013°45'0 0.0
2018-Aug-10 18:25N 45°39' E 013°45'0 0.0
2018-Aug-10 17:48N 45°39' E 013°45'0 0.0
2018-Aug-10 17:27N 45°39' E 013°45'0 0.0
2018-Aug-10 16:57N 45°39' E 013°45'0 0.0
2018-Aug-10 16:30N 45°39' E 013°45'0 0.0
2018-Aug-10 16:00N 45°39' E 013°45'0 0.0
2018-Aug-10 15:29N 45°39' E 013°45'0 0.0
2018-Aug-10 14:59N 45°39' E 013°45'0 0.0
2018-Aug-10 14:23N 45°39' E 013°45'0 0.0
2018-Aug-10 13:53N 45°39' E 013°45'0 0.0
2018-Aug-10 13:29N 45°39' E 013°45'0 0.0
2018-Aug-10 12:43N 45°39' E 013°45'0 0.0
2018-Aug-10 12:28N 45°39' E 013°45'0 0.0
2018-Aug-10 11:40N 45°39' E 013°45'0 0.0
2018-Aug-10 11:25N 45°39' E 013°45'0 0.0
2018-Aug-10 11:00N 45°39' E 013°45'0 0.0
2018-Aug-10 10:27N 45°39' E 013°45'0 0.0
2018-Aug-10 09:36N 45°39' E 013°45'0 0.0
2018-Aug-10 09:30N 45°39' E 013°45'0 0.0
2018-Aug-10 09:00N 45°39' E 013°45'2 3.3
2018-Aug-10 08:30N 45°39' E 013°43'918.4
2018-Aug-10 08:01N 45°34' E 013°32'1019.5
2018-Aug-10 07:30N 45°28' E 013°20'919.2
2018-Aug-10 07:00N 45°20' E 013°13'1020.2
2018-Aug-10 06:31N 45°10' E 013°17'1020.3
2018-Aug-10 06:00N 45°01' E 013°22'1020.1
2018-Aug-10 05:30N 44°52' E 013°29'1020.2
2018-Aug-10 05:00N 44°44' E 013°37'1020.2
2018-Aug-10 04:30N 44°35' E 013°44'1020.1
2018-Aug-10 04:00N 44°27' E 013°52'1020.2
2018-Aug-10 03:30N 44°18' E 013°59'1020.2
2018-Aug-10 03:00N 44°09' E 014°07'1020.1
2018-Aug-10 02:30N 44°01' E 014°16'2819.8
2018-Aug-10 01:06N 43°40' E 014°40'220.1
2018-Aug-10 01:00N 43°39' E 014°42'1020.1
2018-Aug-10 00:30N 43°31' E 014°50'1519.9
2018-Aug-09 23:44N 43°19' E 015°03'  
Track history (hours):
 
Tides and Currents Weather Stations Pressure Air Temp Water Temp Dewpoint Dewpoint Depression Visibility Wind Speed Wind Dir Waves Ship Positions

Un Trieste

Last reported at 2018-Aug-19 14:05 UTC. Time now 2018-Aug-20 16:19 UTC.
Position N 37°05' E 023°56'.

Length 193 m; draft 6.5 m.

Type: Ship (hazmat cat A). MMSI: 271000793.

Date/timePositionNaut miles runAvg speedWind from/ knotsBaromVisibWave heightAir tempDewpointWater temp
2018-Aug-19 14:05N 37°05' E 023°56'57517.9
2018-Aug-18 05:57N 43°34' E 014°40'2620.0
2018-Aug-18 04:39N 43°54' E 014°18'320.2
2018-Aug-18 04:31N 43°56' E 014°15'1020.1
2018-Aug-18 04:00N 44°04' E 014°06'1020.0
2018-Aug-18 03:30N 44°12' E 013°58'1020.0
2018-Aug-18 03:01N 44°20' E 013°51'1020.2
2018-Aug-18 02:30N 44°29' E 013°42'1020.4
2018-Aug-18 02:00N 44°37' E 013°35'1020.1
2018-Aug-18 01:30N 44°46' E 013°27'1020.1
2018-Aug-18 01:00N 44°54' E 013°19'1020.1
2018-Aug-18 00:30N 45°03' E 013°12'1019.8
2018-Aug-18 00:01N 45°11' E 013°05'1019.8
2018-Aug-17 23:30N 45°21' E 013°03'1019.7
2018-Aug-17 23:01N 45°28' E 013°13'1019.6
2018-Aug-17 22:30N 45°34' E 013°24'1019.5
2018-Aug-17 22:00N 45°38' E 013°36'611.4
2018-Aug-17 21:28N 45°39' E 013°45'0 0.0
2018-Aug-17 20:58N 45°39' E 013°45'0 0.0
2018-Aug-17 20:28N 45°39' E 013°45'0 0.0
2018-Aug-17 19:57N 45°39' E 013°45'0 0.0
2018-Aug-17 19:30N 45°39' E 013°45'0 0.0
2018-Aug-17 18:48N 45°39' E 013°45'0 0.0
2018-Aug-17 18:30N 45°39' E 013°45'0 0.0
2018-Aug-17 18:00N 45°39' E 013°45'0 0.0
2018-Aug-17 17:11N 45°39' E 013°45'0 0.0
2018-Aug-17 16:59N 45°39' E 013°45'0 0.0
2018-Aug-17 16:29N 45°39' E 013°45'0 0.0
2018-Aug-17 15:59N 45°39' E 013°45'0 0.0
2018-Aug-17 15:28N 45°39' E 013°45'0 0.0
2018-Aug-17 14:49N 45°39' E 013°45'0 0.3
2018-Aug-17 14:00N 45°39' E 013°45'510.8
2018-Aug-17 13:30N 45°37' E 013°37'917.4
2018-Aug-17 13:00N 45°32' E 013°27'1018.9
2018-Aug-17 12:30N 45°26' E 013°18'917.3
2018-Aug-17 12:00N 45°17' E 013°14'1019.2
2018-Aug-17 11:30N 45°08' E 013°18'1019.3
2018-Aug-17 11:00N 44°59' E 013°23'1019.2
2018-Aug-17 10:30N 44°51' E 013°30'1019.3
2018-Aug-17 10:01N 44°42' E 013°37'1119.2
2018-Aug-17 09:27N 44°34' E 013°45'1119.5
2018-Aug-17 08:53N 44°24' E 013°53'1119.9
2018-Aug-17 08:19N 44°15' E 014°02'1019.9
2018-Aug-17 07:47N 44°06' E 014°10'  
2018-Aug-12 20:10N 38°29' E 024°60'518.6
2018-Aug-12 19:54N 38°24' E 024°57'56014.5
2018-Aug-11 05:17N 43°34' E 014°39'1219.4
2018-Aug-11 04:41N 43°43' E 014°29'419.4
2018-Aug-11 04:30N 43°46' E 014°26'919.3
2018-Aug-11 04:01N 43°54' E 014°17'1019.5
2018-Aug-11 03:30N 44°01' E 014°09'1119.5
2018-Aug-11 02:58N 44°10' E 013°60'919.6
2018-Aug-11 02:30N 44°17' E 013°53'1019.6
2018-Aug-11 02:01N 44°25' E 013°46'1019.8
2018-Aug-11 01:30N 44°34' E 013°39'1019.9
2018-Aug-11 01:00N 44°42' E 013°31'1020.0
2018-Aug-11 00:31N 44°51' E 013°23'1019.7
2018-Aug-11 00:00N 44°59' E 013°16'1019.6
2018-Aug-10 23:30N 45°07' E 013°08'1019.6
2018-Aug-10 23:01N 45°16' E 013°04'918.0
2018-Aug-10 22:30N 45°25' E 013°09'1019.4
2018-Aug-10 22:00N 45°32' E 013°18'919.0
2018-Aug-10 21:30N 45°37' E 013°30'918.3
2018-Aug-10 21:00N 45°39' E 013°43'2 2.8
2018-Aug-10 20:26N 45°39' E 013°45'0 0.0
2018-Aug-10 19:58N 45°39' E 013°45'0 0.0
2018-Aug-10 19:28N 45°39' E 013°45'0 0.0
2018-Aug-10 18:58N 45°39' E 013°45'0 0.0
2018-Aug-10 18:25N 45°39' E 013°45'0 0.0
2018-Aug-10 17:48N 45°39' E 013°45'0 0.0
2018-Aug-10 17:27N 45°39' E 013°45'0 0.0
2018-Aug-10 16:57N 45°39' E 013°45'0 0.0
2018-Aug-10 16:30N 45°39' E 013°45'0 0.0
2018-Aug-10 16:00N 45°39' E 013°45'0 0.0
2018-Aug-10 15:29N 45°39' E 013°45'0 0.0
2018-Aug-10 14:59N 45°39' E 013°45'0 0.0
2018-Aug-10 14:23N 45°39' E 013°45'0 0.0
2018-Aug-10 13:53N 45°39' E 013°45'0 0.0
2018-Aug-10 13:29N 45°39' E 013°45'0 0.0
2018-Aug-10 12:43N 45°39' E 013°45'0 0.0
2018-Aug-10 12:28N 45°39' E 013°45'0 0.0
2018-Aug-10 11:40N 45°39' E 013°45'0 0.0
2018-Aug-10 11:25N 45°39' E 013°45'0 0.0
2018-Aug-10 11:00N 45°39' E 013°45'0 0.0
2018-Aug-10 10:27N 45°39' E 013°45'0 0.0
2018-Aug-10 09:36N 45°39' E 013°45'0 0.0
2018-Aug-10 09:30N 45°39' E 013°45'0 0.0
2018-Aug-10 09:00N 45°39' E 013°45'2 3.3
2018-Aug-10 08:30N 45°39' E 013°43'918.4
2018-Aug-10 08:01N 45°34' E 013°32'1019.5
2018-Aug-10 07:30N 45°28' E 013°20'919.2
2018-Aug-10 07:00N 45°20' E 013°13'1020.2
2018-Aug-10 06:31N 45°10' E 013°17'1020.3
2018-Aug-10 06:00N 45°01' E 013°22'1020.1
2018-Aug-10 05:30N 44°52' E 013°29'1020.2
2018-Aug-10 05:00N 44°44' E 013°37'1020.2
2018-Aug-10 04:30N 44°35' E 013°44'1020.1
2018-Aug-10 04:00N 44°27' E 013°52'1020.2
2018-Aug-10 03:30N 44°18' E 013°59'1020.2
2018-Aug-10 03:00N 44°09' E 014°07'1020.1
2018-Aug-10 02:30N 44°01' E 014°16'2819.8
2018-Aug-10 01:06N 43°40' E 014°40'220.1
2018-Aug-10 01:00N 43°39' E 014°42'1020.1
2018-Aug-10 00:30N 43°31' E 014°50'1519.9
2018-Aug-09 23:44N 43°19' E 015°03'  

Dump ship's entire track history